Time;durP1;ratioP1;P1;durP2;ratioP2;P2;SDS_P1;SDS_P2;PMS_P1;PMS_P2;Temp;Humidity;BMP_temperature;BMP_pressure;BME280_temperature;BME280_humidity;BME280_pressure;Samples;Min_cycle;Max_cycle;Signal;HPM_P1;HPM_P2
2021/06/19 00:02:54;;;;;;;4.53;1.00;;;;;;;26.00;40.36;99928.83;1864496;76;22058;-39
2021/06/19 00:05:21;;;;;;;6.17;3.95;;;;;;;25.89;40.49;99933.34;1779238;80;21030;-37
2021/06/19 00:07:47;;;;;;;8.88;2.33;;;;;;;25.85;40.80;99937.30;1769627;79;22293;-39
2021/06/19 00:10:15;;;;;;;7.95;2.00;;;;;;;25.88;40.82;99935.67;1754364;80;20984;-41
2021/06/19 00:12:45;;;;;;;3.50;1.45;;;;;;;25.90;40.81;99932.33;1753537;80;21052;-41
2021/06/19 00:15:15;;;;;;;2.87;1.47;;;;;;;25.93;40.79;99928.00;1751403;80;20998;-41
2021/06/19 00:17:42;;;;;;;2.80;1.22;;;;;;;25.96;40.75;99925.57;1753348;80;21070;-40
2021/06/19 00:20:18;;;;;;;3.52;1.30;;;;;;;26.00;40.78;99931.02;1754040;80;21122;-42
2021/06/19 00:22:45;;;;;;;2.87;1.10;;;;;;;26.00;40.77;99932.87;1752623;80;21096;-40
2021/06/19 00:25:13;;;;;;;4.50;1.10;;;;;;;25.93;40.91;99936.59;1727663;80;21127;-38
2021/06/19 00:27:40;;;;;;;4.10;1.20;;;;;;;25.89;41.02;99924.37;1750482;78;21055;-38
2021/06/19 00:30:10;;;;;;;3.00;1.17;;;;;;;25.85;41.15;99929.20;1750572;79;21019;-41
2021/06/19 00:32:37;;;;;;;3.60;1.10;;;;;;;25.81;41.27;99923.76;1750560;78;21108;-40
2021/06/19 00:35:06;;;;;;;2.50;1.12;;;;;;;25.79;41.37;99924.41;1752639;78;21055;-41
2021/06/19 00:37:34;;;;;;;6.78;1.30;;;;;;;25.77;41.43;99926.36;1765494;78;21080;-41
2021/06/19 00:40:04;;;;;;;5.50;1.42;;;;;;;25.76;41.46;99924.68;1702977;81;21025;-41
2021/06/19 00:42:30;;;;;;;6.42;1.00;;;;;;;25.79;41.48;99924.41;1760271;78;22086;-38
2021/06/19 00:44:57;;;;;;;5.20;1.20;;;;;;;25.84;41.47;99919.91;1733504;80;21950;-41
2021/06/19 00:47:26;;;;;;;7.05;1.50;;;;;;;25.84;41.47;99926.17;1750583;80;21014;-40
2021/06/19 00:49:53;;;;;;;10.25;1.25;;;;;;;25.84;41.52;99922.61;1739072;80;21089;-42
2021/06/19 00:52:21;;;;;;;3.52;0.95;;;;;;;25.79;41.58;99924.41;1732113;80;21064;-38
2021/06/19 00:54:47;;;;;;;4.62;1.15;;;;;;;25.74;41.72;99929.37;1761775;80;21598;-41
2021/06/19 00:57:15;;;;;;;4.30;1.10;;;;;;;25.73;41.79;99923.61;1762203;80;21235;-40
2021/06/19 00:59:42;;;;;;;6.05;1.00;;;;;;;25.69;41.88;99924.89;1732859;80;21601;-40
2021/06/19 01:02:09;;;;;;;2.25;0.80;;;;;;;25.64;41.95;99923.09;1725810;80;21084;-40
2021/06/19 01:04:36;;;;;;;5.08;1.60;;;;;;;25.64;42.02;99925.78;1764742;80;21035;-40
2021/06/19 01:07:05;;;;;;;4.40;1.05;;;;;;;25.62;42.09;99921.91;1741935;80;21034;-40
2021/06/19 01:09:31;;;;;;;2.98;1.20;;;;;;;25.59;42.13;99927.06;1752758;80;21147;-40
2021/06/19 01:11:58;;;;;;;3.25;0.90;;;;;;;25.57;42.16;99923.67;1746863;80;21074;-41
2021/06/19 01:14:24;;;;;;;5.22;0.90;;;;;;;25.56;42.25;99919.77;1715588;80;21465;-41
2021/06/19 01:16:51;;;;;;;2.95;1.00;;;;;;;25.53;42.30;99920.88;1713445;80;21577;-39
2021/06/19 01:19:18;;;;;;;14.13;5.05;;;;;;;25.55;42.39;99922.97;1770723;78;21102;-43
2021/06/19 01:21:45;;;;;;;10.18;3.80;;;;;;;25.62;42.32;99915.17;1698426;80;21520;-38
2021/06/19 01:24:14;;;;;;;9.68;3.20;;;;;;;25.68;42.16;99920.48;1749736;80;21023;-42
2021/06/19 01:26:41;;;;;;;8.53;2.70;;;;;;;25.68;42.15;99920.48;1752305;80;21064;-43
2021/06/19 01:29:09;;;;;;;2.40;1.62;;;;;;;25.63;42.20;99916.02;1751211;80;21628;-42
2021/06/19 01:31:38;;;;;;;14.13;2.10;;;;;;;25.52;42.38;99912.46;1756298;80;21064;-40
2021/06/19 01:34:04;;;;;;;10.28;1.90;;;;;;;25.40;42.60;99911.73;1753591;80;21246;-39
2021/06/19 01:36:31;;;;;;;10.00;2.08;;;;;;;25.32;42.80;99910.73;1747026;80;21045;-44
2021/06/19 01:38:58;;;;;;;10.60;1.72;;;;;;;25.27;42.96;99910.27;1701459;81;21034;-39
2021/06/19 01:41:30;;;;;;;7.37;1.70;;;;;;;25.26;43.01;99913.94;1731980;80;21061;-44
2021/06/19 01:44:06;;;;;;;6.50;1.42;;;;;;;25.25;43.04;99914.91;1738048;81;21043;-41
2021/06/19 01:46:34;;;;;;;6.08;1.40;;;;;;;25.23;43.04;99913.70;1783455;80;21127;-44
2021/06/19 01:49:00;;;;;;;8.38;1.45;;;;;;;25.18;43.11;99910.09;1775369;79;21061;-44
2021/06/19 01:51:27;;;;;;;4.62;1.57;;;;;;;25.16;43.15;99917.44;1772288;78;21117;-44
2021/06/19 01:53:54;;;;;;;3.67;1.37;;;;;;;25.14;43.21;99915.89;1706438;80;21564;-44
2021/06/19 01:56:21;;;;;;;3.83;1.10;;;;;;;25.10;43.23;99916.66;1751671;80;21748;-41
2021/06/19 01:58:48;;;;;;;1.92;1.10;;;;;;;25.02;43.35;99909.76;1770074;80;21714;-44
2021/06/19 02:01:15;;;;;;;4.30;1.07;;;;;;;24.99;43.45;99910.87;1749679;80;20996;-39
2021/06/19 02:03:43;;;;;;;3.37;1.30;;;;;;;24.98;43.51;99908.31;1722443;81;21131;-42
2021/06/19 02:06:10;;;;;;;2.22;0.90;;;;;;;25.00;43.45;99906.36;1745963;80;21043;-43
2021/06/19 02:08:38;;;;;;;4.25;1.02;;;;;;;24.98;43.52;99910.53;1769245;80;21129;-43
2021/06/19 02:11:06;;;;;;;3.52;0.90;;;;;;;24.98;43.54;99911.00;1729131;81;21384;-44
2021/06/19 02:13:35;;;;;;;3.00;0.80;;;;;;;24.98;43.53;99909.66;1704068;80;21081;-44
2021/06/19 02:16:03;;;;;;;2.72;1.00;;;;;;;24.97;43.54;99907.47;1760969;80;21047;-44
2021/06/19 02:18:31;;;;;;;3.20;0.98;;;;;;;24.97;43.61;99918.73;1747743;80;21086;-45
2021/06/19 02:20:57;;;;;;;6.37;1.30;;;;;;;24.98;43.60;99914.56;1719887;81;21082;-42
2021/06/19 02:23:25;;;;;;;7.67;1.10;;;;;;;25.03;43.57;99915.48;1773571;80;21163;-44
2021/06/19 02:25:52;;;;;;;5.33;0.98;;;;;;;25.11;43.46;99912.95;1772589;79;21055;-42
2021/06/19 02:28:25;;;;;;;3.05;0.88;;;;;;;25.17;43.36;99913.77;1752333;80;21723;-44
2021/06/19 02:30:55;;;;;;;2.87;0.62;;;;;;;25.25;43.23;99920.30;1779796;79;21966;-38
2021/06/19 02:33:22;;;;;;;3.65;0.80;;;;;;;25.32;43.06;99918.81;1773706;80;22176;-44
2021/06/19 02:35:51;;;;;;;2.60;0.80;;;;;;;25.40;42.94;99922.98;1755916;79;21114;-45
2021/06/19 02:38:19;;;;;;;2.47;0.90;;;;;;;25.45;42.82;99922.07;1725402;81;22026;-44
2021/06/19 02:40:47;;;;;;;3.27;0.75;;;;;;;25.55;42.66;99928.36;1753669;79;21035;-45
2021/06/19 02:43:14;;;;;;;6.90;1.00;;;;;;;25.66;42.37;99927.87;1782279;80;21071;-44
2021/06/19 02:45:40;;;;;;;4.05;0.90;;;;;;;25.76;42.18;99928.22;1761672;79;21086;-44
2021/06/19 02:48:08;;;;;;;2.37;0.70;;;;;;;25.86;42.01;99928.73;1760402;79;21273;-41
2021/06/19 02:50:37;;;;;;;3.42;1.00;;;;;;;25.94;41.84;99927.50;1735559;81;21100;-40
2021/06/19 02:53:04;;;;;;;2.47;1.10;;;;;;;25.94;41.70;99933.77;1766086;79;21067;-44
2021/06/19 02:55:35;;;;;;;1.22;0.62;;;;;;;25.84;41.85;99932.91;1753398;80;21043;-45
2021/06/19 02:58:03;;;;;;;5.62;0.93;;;;;;;25.78;42.08;99933.47;1770514;80;21055;-42
2021/06/19 03:00:30;;;;;;;4.12;1.00;;;;;;;25.76;42.17;99929.56;1754558;80;21416;-45
2021/06/19 03:02:57;;;;;;;1.98;0.70;;;;;;;25.77;42.21;99934.45;1724597;80;21541;-42
2021/06/19 03:05:26;;;;;;;2.83;1.00;;;;;;;25.78;42.25;99932.13;1739791;80;21589;-45
2021/06/19 03:07:55;;;;;;;10.45;1.37;;;;;;;25.77;42.28;99937.14;1729632;80;21018;-40
2021/06/19 03:10:26;;;;;;;5.70;1.20;;;;;;;25.71;42.37;99944.47;1720187;82;21106;-44
2021/06/19 03:12:53;;;;;;;2.83;0.80;;;;;;;25.66;42.51;99935.45;1766802;79;21154;-39
2021/06/19 03:15:20;;;;;;;7.17;1.02;;;;;;;25.62;42.62;99934.52;1766734;79;21042;-38
2021/06/19 03:17:47;;;;;;;4.37;0.98;;;;;;;25.58;42.67;99935.29;1756298;80;21047;-39
2021/06/19 03:20:17;;;;;;;5.70;0.90;;;;;;;25.56;42.83;99940.81;1737985;80;21029;-43
2021/06/19 03:22:56;;;;;;;1.62;0.60;;;;;;;25.57;42.86;99945.23;1727457;80;21035;-45
2021/06/19 03:25:30;;;;;;;4.60;1.00;;;;;;;25.54;42.82;99944.15;1754512;78;21177;-46
2021/06/19 03:27:58;;;;;;;4.97;0.90;;;;;;;25.48;42.95;99951.43;1742046;80;21048;-46
2021/06/19 03:30:26;;;;;;;3.50;1.00;;;;;;;25.44;43.00;99951.37;1727002;79;21095;-44
2021/06/19 03:32:53;;;;;;;2.15;0.70;;;;;;;25.44;43.09;99947.83;1774379;78;21075;-46
2021/06/19 03:35:20;;;;;;;1.35;0.80;;;;;;;25.42;43.21;99952.01;1734492;80;21532;-45
2021/06/19 03:37:46;;;;;;;5.22;1.10;;;;;;;25.41;43.08;99948.95;1766455;78;21085;-41
2021/06/19 03:40:15;;;;;;;3.60;0.90;;;;;;;25.35;43.07;99944.09;1768558;78;21031;-43
2021/06/19 03:42:43;;;;;;;3.00;0.90;;;;;;;25.29;43.40;99955.44;1767266;78;21311;-42
2021/06/19 03:45:11;;;;;;;1.30;0.90;;;;;;;25.24;43.39;99951.77;1753454;80;21086;-42
2021/06/19 03:47:39;;;;;;;4.37;0.72;;;;;;;25.19;43.60;99954.87;1773580;78;21090;-44
2021/06/19 03:50:10;;;;;;;4.20;0.98;;;;;;;25.15;43.73;99950.76;1752075;80;21126;-45
2021/06/19 03:52:37;;;;;;;2.25;1.30;;;;;;;25.11;43.78;99947.96;1745783;79;21048;-45
2021/06/19 03:55:06;;;;;;;3.05;0.85;;;;;;;25.13;43.82;99949.17;1752104;80;21537;-38
2021/06/19 03:57:33;;;;;;;4.40;0.95;;;;;;;25.20;43.72;99946.28;1767436;80;21303;-42
2021/06/19 03:59:59;;;;;;;7.17;1.05;;;;;;;25.31;43.53;99944.88;1738245;80;21047;-43
2021/06/19 04:02:26;;;;;;;3.70;1.02;;;;;;;25.36;43.51;99944.47;1739738;80;21599;-44
2021/06/19 04:04:54;;;;;;;7.33;1.07;;;;;;;25.38;43.47;99941.97;1763033;80;21515;-44
2021/06/19 04:07:22;;;;;;;2.80;0.90;;;;;;;25.42;43.48;99939.88;1753204;80;20998;-46
2021/06/19 04:09:52;;;;;;;4.60;0.85;;;;;;;25.49;43.46;99943.72;1763251;80;21082;-44
2021/06/19 04:12:18;;;;;;;4.03;0.80;;;;;;;25.64;43.30;99940.60;1727328;80;21489;-44
2021/06/19 04:14:46;;;;;;;10.03;0.98;;;;;;;25.81;42.96;99939.93;1745150;78;22698;-41
2021/06/19 04:17:12;;;;;;;2.22;0.85;;;;;;;26.01;42.68;99948.03;1716972;80;21007;-43
2021/06/19 04:19:39;;;;;;;4.37;0.82;;;;;;;26.18;42.24;99947.34;1752135;80;21984;-41
2021/06/19 04:22:09;;;;;;;2.72;0.95;;;;;;;26.18;42.16;99950.03;1749927;80;21043;-45
2021/06/19 04:24:37;;;;;;;3.62;1.00;;;;;;;26.17;42.35;99949.67;1707743;81;21095;-46
2021/06/19 04:27:08;;;;;;;7.55;1.32;;;;;;;26.23;42.12;99959.89;1769630;78;21207;-44
2021/06/19 04:29:38;;;;;;;6.60;1.27;;;;;;;26.23;41.93;99959.05;1771225;78;21530;-44
2021/06/19 04:32:05;;;;;;;4.78;1.50;;;;;;;26.09;42.38;99952.22;1720450;80;21085;-41
2021/06/19 04:34:32;;;;;;;12.47;1.62;;;;;;;26.04;42.74;99958.55;1739105;80;20976;-45
2021/06/19 04:36:59;;;;;;;4.72;1.50;;;;;;;26.00;43.05;99958.48;1771085;80;21700;-38
2021/06/19 04:39:27;;;;;;;13.22;1.45;;;;;;;25.94;43.38;99947.24;1776059;79;21109;-41
2021/06/19 04:41:56;;;;;;;11.35;1.77;;;;;;;25.86;43.76;99949.79;1753247;79;21149;-46
2021/06/19 04:46:49;;;;;;;4.97;1.07;;;;;;;25.75;44.13;99959.34;1754812;80;21015;-44
2021/06/19 04:49:16;;;;;;;6.47;1.40;;;;;;;25.67;44.40;99952.45;1769103;78;21103;-41
2021/06/19 04:51:43;;;;;;;12.25;1.98;;;;;;;25.64;44.68;99958.13;1765401;79;22230;-39
2021/06/19 04:54:10;;;;;;;3.33;1.27;;;;;;;25.61;44.48;99959.77;1773558;78;21010;-38
2021/06/19 04:56:41;;;;;;;6.60;1.67;;;;;;;25.54;44.58;99967.05;1753218;80;20988;-37
2021/06/19 04:59:08;;;;;;;11.43;1.40;;;;;;;25.59;44.51;99956.70;1763673;79;21037;-38
2021/06/19 05:01:35;;;;;;;5.62;1.40;;;;;;;25.73;44.24;99956.80;1754723;80;21048;-38
2021/06/19 05:04:02;;;;;;;6.50;1.20;;;;;;;25.88;43.69;99957.74;1755846;79;21120;-37
2021/06/19 05:06:30;;;;;;;6.92;2.80;;;;;;;26.03;43.16;99958.20;1757117;80;21037;-38
2021/06/19 05:08:57;;;;;;;6.85;2.80;;;;;;;26.10;42.90;99953.43;1757208;80;21039;-37
2021/06/19 05:11:24;;;;;;;2.77;1.50;;;;;;;26.19;42.78;99940.09;1725265;81;22145;-37
2021/06/19 05:13:51;;;;;;;7.97;1.50;;;;;;;26.30;42.42;99942.64;1752803;80;21023;-38
2021/06/19 05:16:17;;;;;;;3.92;1.30;;;;;;;26.33;42.37;99948.59;1750184;80;21079;-38
2021/06/19 05:18:45;;;;;;;6.47;1.20;;;;;;;26.41;42.21;99936.22;1778865;79;21097;-38
2021/06/19 05:21:11;;;;;;;3.98;1.27;;;;;;;26.45;42.12;99939.00;1746868;81;21016;-38
2021/06/19 05:23:38;;;;;;;7.12;1.20;;;;;;;26.46;42.25;99946.08;1743560;80;21503;-38
2021/06/19 05:26:04;;;;;;;3.67;1.45;;;;;;;26.53;42.17;99944.52;1772218;80;21082;-38
2021/06/19 05:28:31;;;;;;;7.75;1.35;;;;;;;26.63;42.06;99945.85;1757774;80;21161;-38
2021/06/19 05:31:01;;;;;;;5.22;1.47;;;;;;;26.74;41.76;99948.89;1754147;81;21074;-38
2021/06/19 05:33:28;;;;;;;8.35;1.95;;;;;;;26.85;41.59;99959.52;1764659;80;21043;-38
2021/06/19 05:35:54;;;;;;;2.52;1.37;;;;;;;26.94;41.42;99955.92;1753498;80;21570;-37
2021/06/19 05:38:21;;;;;;;7.10;1.67;;;;;;;27.04;41.17;99958.59;1751399;80;21010;-37
2021/06/19 05:40:48;;;;;;;4.28;1.80;;;;;;;27.12;41.04;99951.94;1755634;80;21185;-38
2021/06/19 05:43:14;;;;;;;6.78;1.50;;;;;;;27.18;40.82;99954.02;1739975;80;20927;-38
2021/06/19 05:45:41;;;;;;;5.90;2.22;;;;;;;27.23;40.80;99963.04;1757356;79;21107;-38
2021/06/19 05:48:08;;;;;;;6.85;2.60;;;;;;;27.26;40.71;99960.05;1755823;80;21027;-37
2021/06/19 05:50:35;;;;;;;7.12;3.50;;;;;;;27.31;40.59;99957.77;1745359;81;21058;-37
2021/06/19 05:53:02;;;;;;;8.03;4.22;;;;;;;27.38;40.52;99952.61;1757870;80;21522;-38
2021/06/19 05:55:28;;;;;;;10.45;5.08;;;;;;;27.47;40.40;99956.25;1748992;80;21058;-37
2021/06/19 05:57:55;;;;;;;8.23;3.37;;;;;;;27.53;40.36;99958.36;1729525;81;21064;-38
2021/06/19 06:00:22;;;;;;;6.83;3.87;;;;;;;27.57;40.22;99955.69;1755528;80;21043;-38
2021/06/19 06:02:48;;;;;;;6.03;3.50;;;;;;;27.58;40.25;99953.34;1754885;80;21073;-38
2021/06/19 06:05:15;;;;;;;5.85;2.15;;;;;;;27.62;40.38;99953.38;1758897;80;21143;-37
2021/06/19 06:07:42;;;;;;;9.90;2.62;;;;;;;27.64;40.30;99960.86;1729369;81;21053;-37
2021/06/19 06:10:10;;;;;;;6.95;2.77;;;;;;;27.59;40.29;99960.47;1758903;80;21069;-37
2021/06/19 06:12:37;;;;;;;10.03;2.27;;;;;;;27.56;40.37;99958.06;1757446;81;21025;-37
2021/06/19 06:15:06;;;;;;;7.72;2.30;;;;;;;27.55;40.37;99962.59;1723470;79;22042;-38
2021/06/19 06:17:32;;;;;;;8.73;2.75;;;;;;;27.56;40.44;99959.41;1762960;78;21819;-38
2021/06/19 06:19:59;;;;;;;3.02;2.08;;;;;;;27.58;40.55;99956.05;1779226;78;21042;-39
2021/06/19 06:22:27;;;;;;;9.23;2.50;;;;;;;27.60;40.48;99970.25;1761073;80;22078;-38
2021/06/19 06:24:53;;;;;;;6.60;1.95;;;;;;;27.63;40.39;99965.90;1765112;80;21043;-38
2021/06/19 06:27:20;;;;;;;7.53;2.30;;;;;;;27.68;40.44;99969.00;1733443;81;21006;-38
2021/06/19 06:29:46;;;;;;;16.45;3.00;;;;;;;27.71;40.36;99964.64;1734804;81;22411;-38
2021/06/19 06:32:13;;;;;;;7.10;2.12;;;;;;;27.74;40.47;99969.75;1715013;81;21030;-38
2021/06/19 06:34:39;;;;;;;18.75;2.80;;;;;;;27.62;40.91;99960.14;1783544;78;21093;-39
2021/06/19 06:37:07;;;;;;;11.18;2.70;;;;;;;27.48;41.19;99966.08;1730920;81;21543;-37
2021/06/19 06:39:34;;;;;;;16.95;2.50;;;;;;;27.30;41.67;99964.16;1776426;78;21022;-38
2021/06/19 06:42:01;;;;;;;9.25;2.42;;;;;;;27.19;42.11;99968.41;1747029;80;21845;-36
2021/06/19 06:44:31;;;;;;;10.82;5.83;;;;;;;27.11;42.29;99962.89;1771092;80;21073;-38
2021/06/19 06:46:58;;;;;;;22.20;11.38;;;;;;;27.05;42.62;99958.95;1770445;79;21078;-38
2021/06/19 06:49:25;;;;;;;18.23;9.88;;;;;;;27.01;42.75;99957.02;1771986;80;21047;-38
2021/06/19 06:51:51;;;;;;;16.85;9.33;;;;;;;26.98;42.72;99951.94;1729017;81;21117;-37
2021/06/19 06:54:19;;;;;;;13.48;5.92;;;;;;;26.97;42.74;99951.58;1770772;79;21020;-39
2021/06/19 06:56:45;;;;;;;9.50;4.35;;;;;;;26.96;42.92;99953.07;1763758;80;21231;-41
2021/06/19 06:59:12;;;;;;;7.28;3.60;;;;;;;27.00;42.97;99954.46;1758291;80;21081;-38
2021/06/19 07:01:39;;;;;;;9.78;3.27;;;;;;;27.09;42.91;99956.80;1765205;78;21083;-40
2021/06/19 07:04:05;;;;;;;8.85;3.10;;;;;;;27.19;42.73;99954.39;1763246;78;21047;-40
2021/06/19 07:06:32;;;;;;;8.35;2.40;;;;;;;27.28;42.50;99945.03;1761543;78;22053;-40
2021/06/19 07:08:59;;;;;;;9.35;2.30;;;;;;;27.38;42.38;99951.27;1773554;79;21035;-38
2021/06/19 07:11:25;;;;;;;10.08;2.42;;;;;;;27.46;42.26;99953.22;1756239;80;21022;-40
2021/06/19 07:13:52;;;;;;;7.37;1.87;;;;;;;27.54;42.02;99952.80;1773041;79;21040;-37
2021/06/19 07:16:21;;;;;;;4.65;1.55;;;;;;;27.61;41.71;99961.16;1753534;80;21039;-37
2021/06/19 07:18:48;;;;;;;8.40;1.57;;;;;;;27.65;41.42;99956.29;1735916;80;21040;-40
2021/06/19 07:21:16;;;;;;;3.15;1.20;;;;;;;27.71;41.31;99961.94;1767388;78;20923;-37
2021/06/19 07:23:44;;;;;;;7.28;1.92;;;;;;;27.76;41.18;99959.62;1745240;80;21106;-39
2021/06/19 07:26:11;;;;;;;10.43;1.87;;;;;;;27.81;41.09;99959.17;1741804;80;21036;-39
2021/06/19 07:28:38;;;;;;;11.93;2.05;;;;;;;27.87;41.10;99961.23;1765461;78;21047;-39
2021/06/19 07:31:06;;;;;;;9.00;1.55;;;;;;;27.92;41.06;99964.84;1747174;78;21142;-39
2021/06/19 07:33:33;;;;;;;6.67;1.47;;;;;;;27.95;40.95;99960.52;1767687;78;21111;-39
2021/06/19 07:36:00;;;;;;;3.72;1.32;;;;;;;28.00;40.87;99960.89;1753344;78;21653;-39
2021/06/19 07:38:29;;;;;;;4.62;1.72;;;;;;;28.03;40.84;99957.88;1759951;78;21070;-39
2021/06/19 07:40:57;;;;;;;10.20;1.72;;;;;;;28.08;40.90;99955.56;1735813;78;21020;-38
2021/06/19 07:43:24;;;;;;;4.60;1.30;;;;;;;28.13;40.86;99964.06;1757106;78;21950;-39
2021/06/19 07:45:52;;;;;;;4.03;1.42;;;;;;;28.15;40.68;99953.08;1762414;78;21011;-39
2021/06/19 07:48:18;;;;;;;7.95;1.60;;;;;;;28.20;40.62;99947.21;1760288;78;21363;-38
2021/06/19 07:50:46;;;;;;;5.65;1.50;;;;;;;28.23;40.63;99952.31;1753940;80;20971;-37
2021/06/19 07:53:13;;;;;;;6.62;2.05;;;;;;;28.27;40.74;99959.09;1750025;78;21039;-39
2021/06/19 07:55:39;;;;;;;6.12;3.05;;;;;;;28.28;40.95;99956.75;1761736;79;21143;-38
2021/06/19 07:58:07;;;;;;;8.38;2.62;;;;;;;28.30;41.11;99942.55;1750969;78;21083;-38
2021/06/19 08:00:34;;;;;;;7.15;3.00;;;;;;;28.30;41.17;99947.97;1754331;80;21486;-39
2021/06/19 08:03:00;;;;;;;8.48;2.37;;;;;;;28.31;41.30;99938.82;1760768;80;22190;-39
2021/06/19 08:05:28;;;;;;;8.35;2.20;;;;;;;28.32;41.36;99936.47;1740838;81;21426;-39
2021/06/19 08:07:55;;;;;;;5.62;1.95;;;;;;;28.35;41.39;99940.22;1754523;80;21137;-39
2021/06/19 08:10:21;;;;;;;9.03;1.92;;;;;;;28.38;41.47;99934.98;1703853;81;21085;-39
2021/06/19 08:12:50;;;;;;;5.50;2.05;;;;;;;28.38;41.44;99938.56;1729418;81;21048;-40
2021/06/19 08:15:17;;;;;;;8.40;2.00;;;;;;;28.42;41.42;99933.16;1720399;81;21546;-40
2021/06/19 08:17:44;;;;;;;3.35;1.52;;;;;;;28.45;41.45;99926.59;1766609;79;21142;-39
2021/06/19 08:20:12;;;;;;;3.90;1.70;;;;;;;28.48;41.44;99929.83;1753441;80;21522;-37
2021/06/19 08:22:38;;;;;;;6.33;1.65;;;;;;;28.51;41.44;99933.58;1729235;82;21035;-37
2021/06/19 08:25:07;;;;;;;5.20;2.10;;;;;;;28.52;41.42;99924.42;1769975;79;21071;-38
2021/06/19 08:27:34;;;;;;;6.45;1.65;;;;;;;28.56;41.39;99918.73;1735910;80;21063;-38
2021/06/19 08:30:01;;;;;;;5.80;1.90;;;;;;;28.59;41.41;99915.20;1764089;80;21044;-37
2021/06/19 08:32:28;;;;;;;7.00;1.80;;;;;;;28.62;41.39;99915.40;1737940;80;21002;-39
2021/06/19 08:34:55;;;;;;;12.65;2.40;;;;;;;28.66;41.44;99919.47;1759005;80;21054;-37
2021/06/19 08:37:21;;;;;;;6.55;1.82;;;;;;;28.68;41.42;99910.19;1739720;80;21062;-38
2021/06/19 08:39:48;;;;;;;11.43;1.87;;;;;;;28.70;41.40;99915.45;1741682;80;21094;-38
2021/06/19 08:42:15;;;;;;;7.67;1.45;;;;;;;28.71;41.27;99907.16;1747065;80;21040;-38
2021/06/19 08:44:45;;;;;;;4.03;1.70;;;;;;;28.73;41.21;99915.09;1745046;79;21152;-38
2021/06/19 08:47:12;;;;;;;5.15;1.62;;;;;;;28.76;41.18;99909.37;1752973;80;21519;-38
2021/06/19 08:49:38;;;;;;;4.58;1.60;;;;;;;28.79;40.90;99914.98;1755023;80;22210;-38
2021/06/19 08:52:08;;;;;;;5.15;1.60;;;;;;;28.82;40.82;99912.80;1768650;78;21629;-38
2021/06/19 08:54:40;;;;;;;4.78;1.70;;;;;;;28.85;40.86;99908.41;1707799;78;21121;-38
2021/06/19 08:57:09;;;;;;;5.25;1.85;;;;;;;28.88;40.86;99902.67;1743628;80;21392;-38
2021/06/19 08:59:38;;;;;;;8.13;1.92;;;;;;;28.92;40.84;99915.39;1726369;81;21230;-39
2021/06/19 09:02:06;;;;;;;2.87;1.92;;;;;;;28.95;40.90;99908.78;1735155;80;21068;-38
2021/06/19 09:04:57;;;;;;;4.83;2.00;;;;;;;28.96;40.87;99914.55;1759439;80;21062;-39
2021/06/19 09:07:46;;;;;;;3.87;2.08;;;;;;;28.97;40.85;99910.84;1746151;80;21020;-39
2021/06/19 09:10:31;;;;;;;7.83;2.52;;;;;;;29.00;40.87;99907.78;1773980;79;21835;-37
2021/06/19 09:13:08;;;;;;;6.37;2.02;;;;;;;29.01;40.83;99902.20;1730390;80;21150;-41
2021/06/19 09:15:42;;;;;;;3.22;2.12;;;;;;;29.03;40.93;99906.11;1757366;79;21079;-41
2021/06/19 09:18:30;;;;;;;7.03;1.87;;;;;;;29.05;40.99;99895.95;1758686;79;21007;-40
2021/06/19 09:21:03;;;;;;;4.72;1.80;;;;;;;29.06;40.73;99907.98;1745205;80;21928;-42
2021/06/19 09:23:41;;;;;;;4.70;2.00;;;;;;;29.11;40.53;99906.14;1756590;80;21129;-41
2021/06/19 09:26:15;;;;;;;2.65;1.37;;;;;;;29.15;40.44;99901.23;1724663;80;21065;-42
2021/06/19 09:28:59;;;;;;;10.05;2.30;;;;;;;29.21;40.35;99898.75;1748844;80;21034;-43
2021/06/19 09:31:50;;;;;;;9.35;2.20;;;;;;;29.34;40.26;99896.09;1756605;80;20980;-40
2021/06/19 09:34:22;;;;;;;5.15;1.75;;;;;;;29.49;39.98;99886.30;1725189;81;22090;-41
2021/06/19 09:36:53;;;;;;;6.17;2.00;;;;;;;29.65;39.72;99898.50;1757490;80;21947;-42
2021/06/19 09:39:24;;;;;;;3.17;1.87;;;;;;;29.79;39.40;99901.60;1767477;80;21879;-42
2021/06/19 09:41:59;;;;;;;6.78;3.42;;;;;;;29.90;39.15;99897.20;1769020;79;21074;-41
2021/06/19 09:44:51;;;;;;;4.37;3.25;;;;;;;30.00;38.98;99882.96;1765706;79;21019;-43
2021/06/19 09:47:17;;;;;;;3.27;2.08;;;;;;;30.12;38.85;99885.33;1722563;81;21101;-43
2021/06/19 09:49:47;;;;;;;3.22;1.80;;;;;;;30.23;38.53;99886.34;1753139;80;21137;-44
2021/06/19 09:52:14;;;;;;;3.87;1.75;;;;;;;30.33;38.44;99891.08;1724373;81;20970;-42
2021/06/19 09:54:43;;;;;;;7.08;2.05;;;;;;;30.44;38.30;99886.34;1753320;80;21043;-42
2021/06/19 09:57:16;;;;;;;2.70;1.45;;;;;;;30.54;38.19;99877.48;1738637;80;20982;-42
2021/06/19 09:59:43;;;;;;;5.28;1.60;;;;;;;30.60;37.95;99883.59;1753641;80;21463;-41
2021/06/19 10:02:21;;;;;;;5.45;1.70;;;;;;;30.68;37.82;99879.49;1728866;80;21016;-43
2021/06/19 10:04:51;;;;;;;3.50;1.80;;;;;;;30.74;37.58;99882.84;1750790;80;21025;-42
2021/06/19 10:07:19;;;;;;;2.98;1.40;;;;;;;30.82;37.38;99876.55;1731222;80;21047;-45
2021/06/19 10:09:50;;;;;;;5.15;1.77;;;;;;;30.87;37.27;99869.23;1736609;80;21466;-44
2021/06/19 10:12:26;;;;;;;3.47;1.45;;;;;;;30.93;37.23;99857.64;1732611;80;21040;-43
2021/06/19 10:15:05;;;;;;;6.70;1.95;;;;;;;30.99;37.16;99866.48;1755382;78;21139;-42
2021/06/19 10:17:35;;;;;;;3.40;0.90;;;;;;;31.08;36.87;99864.56;1751536;78;21955;-42
2021/06/19 10:20:08;;;;;;;5.37;1.40;;;;;;;31.11;36.70;99862.33;1754179;78;20984;-43
2021/06/19 10:22:35;;;;;;;6.17;1.45;;;;;;;31.16;36.65;99863.69;1747021;80;21070;-42
2021/06/19 10:25:09;;;;;;;6.70;1.55;;;;;;;31.22;36.68;99852.95;1750457;80;20997;-42
2021/06/19 10:27:44;;;;;;;4.17;1.37;;;;;;;31.28;36.64;99857.65;1759532;79;21882;-39
2021/06/19 10:30:12;;;;;;;6.65;4.10;;;;;;;31.34;36.51;99860.18;1741833;80;21898;-43
2021/06/19 10:32:50;;;;;;;3.55;3.25;;;;;;;31.43;36.39;99859.09;1762009;80;22140;-44
2021/06/19 10:35:22;;;;;;;3.22;2.98;;;;;;;31.53;36.29;99852.61;1748970;80;21040;-44
2021/06/19 10:37:50;;;;;;;11.50;2.47;;;;;;;31.58;36.15;99855.63;1749963;80;21018;-45
2021/06/19 10:40:25;;;;;;;6.40;2.20;;;;;;;31.63;35.89;99851.33;1748364;80;21971;-42
2021/06/19 10:42:55;;;;;;;6.12;1.87;;;;;;;31.70;35.77;99856.05;1750810;80;21550;-43
2021/06/19 10:45:30;;;;;;;5.70;1.65;;;;;;;31.73;35.60;99852.45;1761420;80;20992;-42
2021/06/19 10:48:08;;;;;;;5.08;1.62;;;;;;;31.77;35.51;99849.67;1739407;80;21010;-39
2021/06/19 10:50:38;;;;;;;4.55;1.40;;;;;;;31.81;35.59;99852.38;1723177;80;20981;-42
2021/06/19 10:53:16;;;;;;;4.28;1.67;;;;;;;31.85;35.57;99850.97;1750261;80;21724;-42
2021/06/19 10:55:53;;;;;;;6.28;1.55;;;;;;;31.91;35.51;99845.82;1748232;80;21517;-41
2021/06/19 10:58:36;;;;;;;5.85;1.37;;;;;;;31.97;35.41;99847.81;1748903;81;21018;-42
2021/06/19 11:01:02;;;;;;;6.22;1.27;;;;;;;32.04;35.22;99847.41;1767305;78;20994;-42
2021/06/19 11:03:53;;;;;;;5.75;1.20;;;;;;;32.09;35.08;99847.72;1763285;78;21010;-41
2021/06/19 11:06:33;;;;;;;6.83;1.35;;;;;;;32.15;34.99;99851.59;1770113;78;21399;-40
2021/06/19 11:09:13;;;;;;;5.03;1.20;;;;;;;32.18;34.92;99847.16;1766961;78;20890;-42
2021/06/19 11:11:56;;;;;;;6.92;1.45;;;;;;;32.22;34.83;99852.02;1768805;78;20967;-41
2021/06/19 11:14:47;;;;;;;3.22;1.12;;;;;;;32.26;34.79;99851.64;1769639;80;20970;-41
2021/06/19 11:17:25;;;;;;;10.35;1.42;;;;;;;32.31;34.72;99862.83;1752559;80;21099;-43
2021/06/19 11:20:02;;;;;;;3.35;1.17;;;;;;;32.34;34.36;99851.56;1773989;78;21857;-42
2021/06/19 11:22:36;;;;;;;4.20;1.07;;;;;;;32.35;34.32;99861.44;1749206;80;21768;-42
2021/06/19 11:25:28;;;;;;;4.80;1.00;;;;;;;32.37;34.33;99863.45;1743560;78;21571;-42
2021/06/19 11:28:05;;;;;;;4.05;1.17;;;;;;;32.39;34.29;99845.88;1765586;78;20970;-41
2021/06/19 11:30:39;;;;;;;4.10;1.10;;;;;;;32.41;34.23;99855.22;1769386;78;20994;-40
2021/06/19 11:33:28;;;;;;;6.85;1.12;;;;;;;32.45;34.14;99850.24;1742897;80;21025;-39
2021/06/19 11:36:06;;;;;;;6.17;1.10;;;;;;;32.45;34.03;99851.11;1769047;78;21389;-42
2021/06/19 11:38:56;;;;;;;4.72;1.15;;;;;;;32.44;34.16;99845.84;1769800;80;20970;-41
2021/06/19 11:41:38;;;;;;;3.65;1.32;;;;;;;32.47;34.25;99840.87;1770115;78;21029;-42
2021/06/19 11:44:11;;;;;;;3.75;0.95;;;;;;;32.47;34.37;99840.87;1769398;78;21018;-40
2021/06/19 11:46:37;;;;;;;2.90;0.98;;;;;;;32.51;34.50;99838.61;1770323;78;21113;-44